AUA143 LIML-LOWS
Flight info
| Callsign | AUA143 |
|---|---|
| Flight time | 0h 46m |
| Altitude | 32000 |
| Route | NESTI DCT MALUG/N0428F310 DCT RASTA RASTA2R |
| Aircraft | A320/M-SDE3FGHIRWY/LB1 |
Departure
| Time | 2026-05-04 16:06 |
|---|---|
| Airport | Milano Linate Airport (LIML) |
Arrival
| Time | 2026-05-04 16:53 |
|---|---|
| Airport | Salzburg Airport (LOWS) |
| Time | Latitude | Longitude | Altitude | Speed | Heading |
|---|---|---|---|---|---|
| 2026-05-04 15:26 | 45.45774 | 9.27885 | 363 ft | 0 kts | 91° |
| 2026-05-04 15:30 | 45.45692 | 9.27881 | 366 ft | 0 kts | 91° |
| 2026-05-04 15:57 | 45.45691 | 9.27909 | 363 ft | 6 kts | 91° |
| 2026-05-04 15:57 | 45.45675 | 9.27975 | 366 ft | 7 kts | 147° |
| 2026-05-04 15:57 | 45.45636 | 9.27981 | 367 ft | 5 kts | 180° |
| 2026-05-04 15:57 | 45.45604 | 9.27980 | 363 ft | 4 kts | 180° |
| 2026-05-04 15:58 | 45.45574 | 9.27980 | 363 ft | 5 kts | 181° |
| 2026-05-04 15:58 | 45.45532 | 9.27979 | 362 ft | 7 kts | 180° |
| 2026-05-04 15:58 | 45.45468 | 9.27978 | 362 ft | 11 kts | 180° |
| 2026-05-04 15:58 | 45.45387 | 9.27975 | 361 ft | 11 kts | 190° |
| 2026-05-04 15:59 | 45.45321 | 9.27930 | 362 ft | 11 kts | 207° |
| 2026-05-04 15:59 | 45.45236 | 9.27880 | 360 ft | 15 kts | 195° |
| 2026-05-04 15:59 | 45.45127 | 9.27876 | 363 ft | 16 kts | 176° |
| 2026-05-04 15:59 | 45.45018 | 9.27888 | 360 ft | 16 kts | 176° |
| 2026-05-04 16:00 | 45.44916 | 9.27914 | 366 ft | 14 kts | 165° |
| 2026-05-04 16:00 | 45.44825 | 9.27943 | 358 ft | 13 kts | 175° |
| 2026-05-04 16:00 | 45.44741 | 9.27952 | 359 ft | 11 kts | 175° |
| 2026-05-04 16:00 | 45.44666 | 9.27960 | 357 ft | 10 kts | 175° |
| 2026-05-04 16:01 | 45.44579 | 9.27969 | 359 ft | 17 kts | 175° |
| 2026-05-04 16:01 | 45.44435 | 9.27984 | 355 ft | 25 kts | 176° |
| 2026-05-04 16:01 | 45.44254 | 9.28004 | 358 ft | 27 kts | 175° |
| 2026-05-04 16:01 | 45.44061 | 9.28024 | 352 ft | 28 kts | 174° |
| 2026-05-04 16:02 | 45.43860 | 9.28046 | 351 ft | 30 kts | 175° |
| 2026-05-04 16:02 | 45.43653 | 9.28069 | 357 ft | 29 kts | 175° |
| 2026-05-04 16:02 | 45.43460 | 9.28055 | 355 ft | 9 kts | 230° |
| 2026-05-04 16:03 | 45.43446 | 9.27965 | 349 ft | 10 kts | 265° |
| 2026-05-04 16:03 | 45.43446 | 9.27958 | 349 ft | 0 kts | 265° |
| 2026-05-04 16:04 | 45.43445 | 9.27955 | 349 ft | 2 kts | 265° |
| 2026-05-04 16:04 | 45.43443 | 9.27912 | 349 ft | 7 kts | 265° |
| 2026-05-04 16:05 | 45.43458 | 9.27829 | 357 ft | 10 kts | 321° |
| 2026-05-04 16:05 | 45.43521 | 9.27815 | 352 ft | 9 kts | 356° |
| 2026-05-04 16:05 | 45.44277 | 9.27727 | 355 ft | 118 kts | 357° |
| 2026-05-04 16:06 | 45.45270 | 9.27610 | 455 ft | 158 kts | 352° |
| 2026-05-04 16:06 | 45.48222 | 9.27679 | 1955 ft | 175 kts | 5° |
| 2026-05-04 16:07 | 45.49962 | 9.27985 | 2389 ft | 202 kts | 5° |
| 2026-05-04 16:07 | 45.54761 | 9.29444 | 3705 ft | 266 kts | 25° |
| 2026-05-04 16:08 | 45.56387 | 9.30774 | 4561 ft | 272 kts | 30° |
| 2026-05-04 16:08 | 45.61340 | 9.34988 | 7237 ft | 281 kts | 30° |
| 2026-05-04 16:09 | 45.64836 | 9.37644 | 8894 ft | 292 kts | 28° |
| 2026-05-04 16:09 | 45.68121 | 9.41116 | 10309 ft | 301 kts | 55° |
| 2026-05-04 16:10 | 45.70643 | 9.46298 | 10869 ft | 340 kts | 57° |
| 2026-05-04 16:11 | 45.74901 | 9.54877 | 12808 ft | 357 kts | 62° |
| 2026-05-04 16:11 | 45.75911 | 9.58135 | 13511 ft | 360 kts | 74° |
| 2026-05-04 16:12 | 45.76780 | 9.68637 | 15316 ft | 371 kts | 88° |
| 2026-05-04 16:12 | 45.77273 | 9.79913 | 17062 ft | 384 kts | 88° |
| 2026-05-04 16:13 | 45.77711 | 9.87624 | 18199 ft | 393 kts | 86° |
| 2026-05-04 16:13 | 45.78160 | 9.95474 | 19237 ft | 400 kts | 87° |
| 2026-05-04 16:14 | 45.78574 | 10.03470 | 20332 ft | 405 kts | 87° |
| 2026-05-04 16:14 | 45.78970 | 10.11567 | 21428 ft | 410 kts | 88° |
| 2026-05-04 16:15 | 45.79547 | 10.23891 | 23062 ft | 417 kts | 88° |
| 2026-05-04 16:16 | 45.79922 | 10.32229 | 23981 ft | 422 kts | 88° |
| 2026-05-04 16:16 | 45.81494 | 10.44698 | 25174 ft | 432 kts | 67° |
| 2026-05-04 16:17 | 45.84507 | 10.52212 | 25935 ft | 438 kts | 59° |
| 2026-05-04 16:18 | 45.89324 | 10.63412 | 26967 ft | 446 kts | 60° |
| 2026-05-04 16:18 | 45.90953 | 10.67216 | 27303 ft | 449 kts | 60° |
| 2026-05-04 16:19 | 45.95887 | 10.78775 | 28375 ft | 455 kts | 60° |
| 2026-05-04 16:19 | 45.99206 | 10.86569 | 28978 ft | 459 kts | 60° |
| 2026-05-04 16:20 | 46.04228 | 10.98404 | 29882 ft | 466 kts | 60° |
| 2026-05-04 16:20 | 46.07624 | 11.06430 | 30338 ft | 472 kts | 60° |
| 2026-05-04 16:21 | 46.12759 | 11.18628 | 31015 ft | 477 kts | 60° |
| 2026-05-04 16:22 | 46.16200 | 11.26826 | 31479 ft | 477 kts | 60° |
| 2026-05-04 16:22 | 46.21308 | 11.39013 | 32094 ft | 468 kts | 60° |
| 2026-05-04 16:23 | 46.26253 | 11.50874 | 32094 ft | 457 kts | 60° |
| 2026-05-04 16:25 | 46.36017 | 11.74487 | 32091 ft | 456 kts | 60° |
| 2026-05-04 16:26 | 46.47368 | 12.02151 | 32062 ft | 457 kts | 60° |
| 2026-05-04 16:28 | 46.55447 | 12.22037 | 32085 ft | 457 kts | 60° |
| 2026-05-04 16:29 | 46.66630 | 12.49773 | 31882 ft | 450 kts | 60° |
| 2026-05-04 16:30 | 46.72036 | 12.60785 | 31129 ft | 445 kts | 41° |
| 2026-05-04 16:31 | 46.77038 | 12.66013 | 30626 ft | 441 kts | 33° |
| 2026-05-04 16:31 | 46.84604 | 12.73426 | 29358 ft | 432 kts | 33° |
| 2026-05-04 16:32 | 46.91969 | 12.80665 | 27846 ft | 419 kts | 33° |
| 2026-05-04 16:33 | 46.96765 | 12.85394 | 26882 ft | 412 kts | 33° |
| 2026-05-04 16:33 | 47.01478 | 12.90046 | 25962 ft | 406 kts | 33° |
| 2026-05-04 16:34 | 47.06096 | 12.94621 | 25070 ft | 401 kts | 33° |
| 2026-05-04 16:34 | 47.08398 | 12.96906 | 24597 ft | 398 kts | 33° |
| 2026-05-04 16:35 | 47.15209 | 13.03689 | 23171 ft | 392 kts | 33° |
| 2026-05-04 16:35 | 47.21887 | 13.10337 | 21785 ft | 382 kts | 33° |
| 2026-05-04 16:36 | 47.24077 | 13.12524 | 21317 ft | 380 kts | 33° |
| 2026-05-04 16:36 | 47.28429 | 13.16882 | 20412 ft | 377 kts | 34° |
| 2026-05-04 16:37 | 47.32747 | 13.21205 | 19490 ft | 374 kts | 34° |
| 2026-05-04 16:37 | 47.34892 | 13.23357 | 19034 ft | 373 kts | 34° |
| 2026-05-04 16:37 | 47.39182 | 13.27672 | 18092 ft | 373 kts | 34° |
| 2026-05-04 16:38 | 47.43438 | 13.31969 | 17176 ft | 368 kts | 34° |
| 2026-05-04 16:39 | 47.50416 | 13.35506 | 15865 ft | 360 kts | 353° |
| 2026-05-04 16:39 | 47.55015 | 13.32934 | 14976 ft | 350 kts | 324° |
| 2026-05-04 16:40 | 47.59069 | 13.29034 | 14109 ft | 350 kts | 324° |
| 2026-05-04 16:40 | 47.63160 | 13.25125 | 13188 ft | 349 kts | 325° |
| 2026-05-04 16:41 | 47.67217 | 13.21257 | 12315 ft | 343 kts | 325° |
| 2026-05-04 16:41 | 47.73065 | 13.15636 | 11031 ft | 326 kts | 324° |
| 2026-05-04 16:42 | 47.78130 | 13.10742 | 10040 ft | 319 kts | 323° |
| 2026-05-04 16:43 | 47.81738 | 13.07263 | 9750 ft | 300 kts | 323° |
| 2026-05-04 16:43 | 47.85183 | 13.03932 | 8696 ft | 295 kts | 324° |
| 2026-05-04 16:43 | 47.86917 | 13.02252 | 8037 ft | 292 kts | 324° |
| 2026-05-04 16:44 | 47.93597 | 12.95770 | 5442 ft | 286 kts | 327° |
| 2026-05-04 16:45 | 47.96828 | 12.92621 | 5143 ft | 264 kts | 327° |
| 2026-05-04 16:46 | 48.01211 | 12.88345 | 4860 ft | 246 kts | 326° |
| 2026-05-04 16:46 | 48.02696 | 12.84245 | 4742 ft | 225 kts | 262° |
| 2026-05-04 16:47 | 48.00886 | 12.80917 | 4775 ft | 217 kts | 194° |
| 2026-05-04 16:47 | 47.98096 | 12.82014 | 4784 ft | 217 kts | 133° |
| 2026-05-04 16:48 | 47.96662 | 12.88193 | 4306 ft | 211 kts | 118° |
| 2026-05-04 16:48 | 47.95723 | 12.89849 | 4067 ft | 211 kts | 143° |
| 2026-05-04 16:49 | 47.93101 | 12.91666 | 3799 ft | 198 kts | 155° |
| 2026-05-04 16:49 | 47.90792 | 12.93128 | 3586 ft | 164 kts | 155° |
| 2026-05-04 16:50 | 47.88810 | 12.94387 | 3215 ft | 150 kts | 154° |
| 2026-05-04 16:50 | 47.86926 | 12.95584 | 2835 ft | 146 kts | 154° |
| 2026-05-04 16:51 | 47.85048 | 12.96781 | 2473 ft | 148 kts | 154° |
| 2026-05-04 16:51 | 47.84097 | 12.97381 | 2266 ft | 149 kts | 155° |
| 2026-05-04 16:51 | 47.82156 | 12.98608 | 1853 ft | 153 kts | 155° |
| 2026-05-04 16:52 | 47.80186 | 12.99855 | 1440 ft | 153 kts | 155° |
| 2026-05-04 16:52 | 47.79356 | 13.00385 | 1424 ft | 91 kts | 157° |
| 2026-05-04 16:53 | 47.78781 | 13.00745 | 1421 ft | 35 kts | 157° |
| 2026-05-04 16:53 | 47.78206 | 13.01053 | 1419 ft | 12 kts | 219° |
| 2026-05-04 16:54 | 47.78182 | 13.00946 | 1419 ft | 9 kts | 272° |
| 2026-05-04 16:55 | 47.78307 | 13.00774 | 1421 ft | 4 kts | 337° |
| 2026-05-04 16:55 | 47.78345 | 13.00750 | 1421 ft | 10 kts | 336° |
| 2026-05-04 16:56 | 47.78517 | 13.00642 | 1421 ft | 19 kts | 337° |
| 2026-05-04 16:56 | 47.78926 | 13.00384 | 1421 ft | 13 kts | 332° |
| 2026-05-04 16:57 | 47.78954 | 13.00278 | 1422 ft | 10 kts | 274° |
| 2026-05-04 16:57 | 47.78993 | 13.00131 | 1422 ft | 7 kts | 334° |
| 2026-05-04 16:58 | 47.79213 | 12.99991 | 1422 ft | 9 kts | 337° |
| 2026-05-04 16:58 | 47.79241 | 12.99945 | 1422 ft | 6 kts | 285° |
| 2026-05-04 16:59 | 47.79254 | 12.99860 | 1422 ft | 3 kts | 282° |
| 2026-05-04 17:00 | 47.79258 | 12.99829 | 1422 ft | 0 kts | 282° |